sensor_id;sensor_type;location;lat;lon;timestamp;temperature;humidity
3037;DHT22;1528;52.550;13.408;2023-04-01T00:01:00;11.40;58.30
3037;DHT22;1528;52.550;13.408;2023-04-01T00:03:46;11.40;58.30
3037;DHT22;1528;52.550;13.408;2023-04-01T00:06:33;11.40;57.70
3037;DHT22;1528;52.550;13.408;2023-04-01T00:09:19;11.30;59.30
3037;DHT22;1528;52.550;13.408;2023-04-01T00:12:05;11.40;58.20
3037;DHT22;1528;52.550;13.408;2023-04-01T00:14:51;11.40;57.30
3037;DHT22;1528;52.550;13.408;2023-04-01T00:17:36;11.60;57.30
3037;DHT22;1528;52.550;13.408;2023-04-01T00:20:22;11.30;57.40
3037;DHT22;1528;52.550;13.408;2023-04-01T00:23:09;11.30;59.10
3037;DHT22;1528;52.550;13.408;2023-04-01T00:25:54;11.30;57.20
3037;DHT22;1528;52.550;13.408;2023-04-01T00:28:40;11.50;56.10
3037;DHT22;1528;52.550;13.408;2023-04-01T00:31:25;11.40;57.90
3037;DHT22;1528;52.550;13.408;2023-04-01T00:34:11;11.40;57.80
3037;DHT22;1528;52.550;13.408;2023-04-01T00:36:56;11.40;57.50
3037;DHT22;1528;52.550;13.408;2023-04-01T00:39:44;11.60;56.80
3037;DHT22;1528;52.550;13.408;2023-04-01T00:42:30;11.70;55.80
3037;DHT22;1528;52.550;13.408;2023-04-01T00:45:38;11.50;57.30
3037;DHT22;1528;52.550;13.408;2023-04-01T00:48:27;11.40;56.90
3037;DHT22;1528;52.550;13.408;2023-04-01T00:51:17;11.50;56.10
3037;DHT22;1528;52.550;13.408;2023-04-01T00:54:04;11.50;57.10
3037;DHT22;1528;52.550;13.408;2023-04-01T00:56:55;11.50;56.60
3037;DHT22;1528;52.550;13.408;2023-04-01T00:59:44;11.40;56.40
3037;DHT22;1528;52.550;13.408;2023-04-01T01:02:31;11.40;56.80
3037;DHT22;1528;52.550;13.408;2023-04-01T01:05:30;11.50;56.20
3037;DHT22;1528;52.550;13.408;2023-04-01T01:08:21;11.60;55.70
3037;DHT22;1528;52.550;13.408;2023-04-01T01:11:10;11.50;56.50
3037;DHT22;1528;52.550;13.408;2023-04-01T01:14:02;11.70;55.80
3037;DHT22;1528;52.550;13.408;2023-04-01T01:16:56;11.50;56.20
3037;DHT22;1528;52.550;13.408;2023-04-01T01:19:57;11.30;57.30
3037;DHT22;1528;52.550;13.408;2023-04-01T01:23:02;11.40;57.70
3037;DHT22;1528;52.550;13.408;2023-04-01T01:26:04;11.30;57.60
3037;DHT22;1528;52.550;13.408;2023-04-01T01:29:04;11.20;58.70
3037;DHT22;1528;52.550;13.408;2023-04-01T01:31:58;11.50;57.60
3037;DHT22;1528;52.550;13.408;2023-04-01T01:34:51;11.50;58.00
3037;DHT22;1528;52.550;13.408;2023-04-01T01:37:43;11.40;58.30
3037;DHT22;1528;52.550;13.408;2023-04-01T01:40:31;11.30;59.60
3037;DHT22;1528;52.550;13.408;2023-04-01T01:43:20;11.30;58.50
3037;DHT22;1528;52.550;13.408;2023-04-01T01:46:09;11.30;58.20
3037;DHT22;1528;52.550;13.408;2023-04-01T01:48:56;11.40;57.80
3037;DHT22;1528;52.550;13.408;2023-04-01T01:51:43;11.50;58.30
3037;DHT22;1528;52.550;13.408;2023-04-01T01:54:29;11.50;57.80
3037;DHT22;1528;52.550;13.408;2023-04-01T01:57:15;11.40;58.80
3037;DHT22;1528;52.550;13.408;2023-04-01T02:00:04;11.50;58.20
3037;DHT22;1528;52.550;13.408;2023-04-01T02:02:53;11.50;57.60
3037;DHT22;1528;52.550;13.408;2023-04-01T02:05:39;11.40;58.30
3037;DHT22;1528;52.550;13.408;2023-04-01T02:08:27;11.60;57.60
3037;DHT22;1528;52.550;13.408;2023-04-01T02:11:17;11.50;57.80
3037;DHT22;1528;52.550;13.408;2023-04-01T02:14:06;11.50;57.80
3037;DHT22;1528;52.550;13.408;2023-04-01T02:16:56;11.50;58.20
3037;DHT22;1528;52.550;13.408;2023-04-01T02:19:46;11.50;59.00
3037;DHT22;1528;52.550;13.408;2023-04-01T02:22:34;11.40;59.70
3037;DHT22;1528;52.550;13.408;2023-04-01T02:25:23;11.30;59.70
3037;DHT22;1528;52.550;13.408;2023-04-01T02:28:12;11.20;59.70
3037;DHT22;1528;52.550;13.408;2023-04-01T02:31:01;11.20;59.50
3037;DHT22;1528;52.550;13.408;2023-04-01T02:33:47;11.10;61.20
3037;DHT22;1528;52.550;13.408;2023-04-01T02:36:35;11.30;62.80
3037;DHT22;1528;52.550;13.408;2023-04-01T02:39:21;11.40;60.30
3037;DHT22;1528;52.550;13.408;2023-04-01T02:42:06;11.40;61.20
3037;DHT22;1528;52.550;13.408;2023-04-01T02:44:53;11.40;61.50
3037;DHT22;1528;52.550;13.408;2023-04-01T02:47:39;11.30;61.50
3037;DHT22;1528;52.550;13.408;2023-04-01T02:50:24;11.40;60.90
3037;DHT22;1528;52.550;13.408;2023-04-01T02:53:10;11.30;61.60
3037;DHT22;1528;52.550;13.408;2023-04-01T02:55:56;11.40;61.10
3037;DHT22;1528;52.550;13.408;2023-04-01T02:58:41;11.40;61.10
3037;DHT22;1528;52.550;13.408;2023-04-01T03:01:28;11.30;61.50
3037;DHT22;1528;52.550;13.408;2023-04-01T03:04:14;11.40;62.80
3037;DHT22;1528;52.550;13.408;2023-04-01T03:07:00;11.40;61.90
3037;DHT22;1528;52.550;13.408;2023-04-01T03:09:45;11.60;60.10
3037;DHT22;1528;52.550;13.408;2023-04-01T03:12:31;11.50;59.60
3037;DHT22;1528;52.550;13.408;2023-04-01T03:15:17;11.50;58.40
3037;DHT22;1528;52.550;13.408;2023-04-01T03:18:04;11.50;59.40
3037;DHT22;1528;52.550;13.408;2023-04-01T03:20:49;11.60;58.40
3037;DHT22;1528;52.550;13.408;2023-04-01T03:23:35;11.60;59.90
3037;DHT22;1528;52.550;13.408;2023-04-01T03:26:21;11.50;58.40
3037;DHT22;1528;52.550;13.408;2023-04-01T03:29:06;11.30;58.60
3037;DHT22;1528;52.550;13.408;2023-04-01T03:31:52;11.50;59.00
3037;DHT22;1528;52.550;13.408;2023-04-01T03:34:39;11.50;61.60
3037;DHT22;1528;52.550;13.408;2023-04-01T03:37:25;11.40;59.30
3037;DHT22;1528;52.550;13.408;2023-04-01T03:40:11;11.40;61.20
3037;DHT22;1528;52.550;13.408;2023-04-01T03:42:56;11.50;59.80
3037;DHT22;1528;52.550;13.408;2023-04-01T03:45:44;11.50;58.40
3037;DHT22;1528;52.550;13.408;2023-04-01T03:48:30;11.60;60.20
3037;DHT22;1528;52.550;13.408;2023-04-01T03:51:17;11.60;59.50
3037;DHT22;1528;52.550;13.408;2023-04-01T03:54:02;11.70;58.20
3037;DHT22;1528;52.550;13.408;2023-04-01T03:56:48;11.90;57.20
3037;DHT22;1528;52.550;13.408;2023-04-01T03:59:34;11.90;57.00
3037;DHT22;1528;52.550;13.408;2023-04-01T04:02:20;11.80;58.70
3037;DHT22;1528;52.550;13.408;2023-04-01T04:05:06;11.70;58.50
3037;DHT22;1528;52.550;13.408;2023-04-01T04:07:53;11.70;58.10
3037;DHT22;1528;52.550;13.408;2023-04-01T04:10:39;11.90;56.70
3037;DHT22;1528;52.550;13.408;2023-04-01T04:13:25;11.80;56.80
3037;DHT22;1528;52.550;13.408;2023-04-01T04:16:11;11.70;58.20
3037;DHT22;1528;52.550;13.408;2023-04-01T04:18:56;11.60;57.80
3037;DHT22;1528;52.550;13.408;2023-04-01T04:21:42;11.80;56.80
3037;DHT22;1528;52.550;13.408;2023-04-01T04:24:29;11.70;57.00
3037;DHT22;1528;52.550;13.408;2023-04-01T04:27:14;11.70;57.50
3037;DHT22;1528;52.550;13.408;2023-04-01T04:30:00;11.90;56.70
3037;DHT22;1528;52.550;13.408;2023-04-01T04:32:46;11.80;57.60
3037;DHT22;1528;52.550;13.408;2023-04-01T04:35:31;11.80;58.60
3037;DHT22;1528;52.550;13.408;2023-04-01T04:38:17;11.70;59.00
3037;DHT22;1528;52.550;13.408;2023-04-01T04:41:08;11.50;60.50
3037;DHT22;1528;52.550;13.408;2023-04-01T04:43:55;11.50;60.10
3037;DHT22;1528;52.550;13.408;2023-04-01T04:46:42;11.50;62.30
3037;DHT22;1528;52.550;13.408;2023-04-01T04:49:28;11.40;62.80
3037;DHT22;1528;52.550;13.408;2023-04-01T04:52:14;11.40;61.70
3037;DHT22;1528;52.550;13.408;2023-04-01T04:54:59;11.60;61.10
3037;DHT22;1528;52.550;13.408;2023-04-01T04:57:46;11.60;59.70
3037;DHT22;1528;52.550;13.408;2023-04-01T05:00:32;11.50;60.90
3037;DHT22;1528;52.550;13.408;2023-04-01T05:03:17;11.30;61.00
3037;DHT22;1528;52.550;13.408;2023-04-01T05:06:04;11.50;61.30
3037;DHT22;1528;52.550;13.408;2023-04-01T05:08:50;11.50;61.50
3037;DHT22;1528;52.550;13.408;2023-04-01T05:11:35;11.50;62.10
3037;DHT22;1528;52.550;13.408;2023-04-01T05:14:22;11.50;60.00
3037;DHT22;1528;52.550;13.408;2023-04-01T05:17:09;11.50;61.10
3037;DHT22;1528;52.550;13.408;2023-04-01T05:19:54;11.70;60.10
3037;DHT22;1528;52.550;13.408;2023-04-01T05:22:40;11.70;58.90
3037;DHT22;1528;52.550;13.408;2023-04-01T05:25:26;11.60;58.80
3037;DHT22;1528;52.550;13.408;2023-04-01T05:28:11;11.50;60.90
3037;DHT22;1528;52.550;13.408;2023-04-01T05:31:00;11.70;60.70
3037;DHT22;1528;52.550;13.408;2023-04-01T05:33:46;11.80;59.30
3037;DHT22;1528;52.550;13.408;2023-04-01T05:36:31;11.80;61.70
3037;DHT22;1528;52.550;13.408;2023-04-01T05:39:17;11.90;59.70
3037;DHT22;1528;52.550;13.408;2023-04-01T05:42:03;11.70;59.50
3037;DHT22;1528;52.550;13.408;2023-04-01T05:44:50;11.80;60.00
3037;DHT22;1528;52.550;13.408;2023-04-01T05:47:37;11.90;58.70
3037;DHT22;1528;52.550;13.408;2023-04-01T05:50:22;11.90;58.50
3037;DHT22;1528;52.550;13.408;2023-04-01T05:53:08;11.90;58.80
3037;DHT22;1528;52.550;13.408;2023-04-01T05:55:54;11.80;59.90
3037;DHT22;1528;52.550;13.408;2023-04-01T05:58:39;11.90;60.00
3037;DHT22;1528;52.550;13.408;2023-04-01T06:01:25;12.00;58.50
3037;DHT22;1528;52.550;13.408;2023-04-01T06:04:15;12.00;57.80
3037;DHT22;1528;52.550;13.408;2023-04-01T06:07:01;12.20;57.30
3037;DHT22;1528;52.550;13.408;2023-04-01T06:09:50;12.10;57.10
3037;DHT22;1528;52.550;13.408;2023-04-01T06:12:54;12.20;57.00
3037;DHT22;1528;52.550;13.408;2023-04-01T06:15:48;12.30;56.00
3037;DHT22;1528;52.550;13.408;2023-04-01T06:18:51;12.10;56.40
3037;DHT22;1528;52.550;13.408;2023-04-01T06:21:59;12.10;57.50
3037;DHT22;1528;52.550;13.408;2023-04-01T06:24:58;12.10;56.90
3037;DHT22;1528;52.550;13.408;2023-04-01T06:28:00;11.90;57.70
3037;DHT22;1528;52.550;13.408;2023-04-01T06:30:54;12.10;57.10
3037;DHT22;1528;52.550;13.408;2023-04-01T06:33:56;12.10;58.80
3037;DHT22;1528;52.550;13.408;2023-04-01T06:36:55;12.20;56.50
3037;DHT22;1528;52.550;13.408;2023-04-01T06:39:53;11.90;58.30
3037;DHT22;1528;52.550;13.408;2023-04-01T06:42:51;12.00;58.50
3037;DHT22;1528;52.550;13.408;2023-04-01T06:45:44;12.10;59.50
3037;DHT22;1528;52.550;13.408;2023-04-01T06:48:50;12.00;58.80
3037;DHT22;1528;52.550;13.408;2023-04-01T06:51:47;12.00;58.30
3037;DHT22;1528;52.550;13.408;2023-04-01T06:54:38;12.10;59.10
3037;DHT22;1528;52.550;13.408;2023-04-01T06:57:31;12.30;58.00
3037;DHT22;1528;52.550;13.408;2023-04-01T07:00:22;12.30;58.20
3037;DHT22;1528;52.550;13.408;2023-04-01T07:03:18;12.00;58.10
3037;DHT22;1528;52.550;13.408;2023-04-01T07:06:08;11.90;59.20
3037;DHT22;1528;52.550;13.408;2023-04-01T07:08:58;12.10;60.40
3037;DHT22;1528;52.550;13.408;2023-04-01T07:11:46;12.20;58.30
3037;DHT22;1528;52.550;13.408;2023-04-01T07:14:36;12.10;58.80
3037;DHT22;1528;52.550;13.408;2023-04-01T07:17:27;12.20;58.30
3037;DHT22;1528;52.550;13.408;2023-04-01T07:20:18;12.20;58.70
3037;DHT22;1528;52.550;13.408;2023-04-01T07:23:10;12.20;58.20
3037;DHT22;1528;52.550;13.408;2023-04-01T07:26:00;12.10;60.30
3037;DHT22;1528;52.550;13.408;2023-04-01T07:28:48;12.30;59.40
3037;DHT22;1528;52.550;13.408;2023-04-01T07:31:48;12.40;60.00
3037;DHT22;1528;52.550;13.408;2023-04-01T07:34:42;12.40;59.90
3037;DHT22;1528;52.550;13.408;2023-04-01T07:37:32;12.40;58.10
3037;DHT22;1528;52.550;13.408;2023-04-01T07:40:26;12.50;59.90
3037;DHT22;1528;52.550;13.408;2023-04-01T07:43:38;12.40;58.60
3037;DHT22;1528;52.550;13.408;2023-04-01T07:46:41;12.60;60.00
3037;DHT22;1528;52.550;13.408;2023-04-01T07:49:38;12.70;59.50
3037;DHT22;1528;52.550;13.408;2023-04-01T07:52:33;12.70;60.80
3037;DHT22;1528;52.550;13.408;2023-04-01T07:55:24;12.70;59.40
3037;DHT22;1528;52.550;13.408;2023-04-01T07:58:18;12.70;59.60
3037;DHT22;1528;52.550;13.408;2023-04-01T08:01:11;12.70;59.20
3037;DHT22;1528;52.550;13.408;2023-04-01T08:04:23;12.80;58.60
3037;DHT22;1528;52.550;13.408;2023-04-01T08:07:14;12.80;57.70
3037;DHT22;1528;52.550;13.408;2023-04-01T08:10:06;12.80;57.90
3037;DHT22;1528;52.550;13.408;2023-04-01T08:13:02;12.80;57.40
3037;DHT22;1528;52.550;13.408;2023-04-01T08:15:59;12.60;56.80
3037;DHT22;1528;52.550;13.408;2023-04-01T08:18:53;12.40;59.30
3037;DHT22;1528;52.550;13.408;2023-04-01T08:21:45;12.60;56.50
3037;DHT22;1528;52.550;13.408;2023-04-01T08:24:35;12.60;56.90
3037;DHT22;1528;52.550;13.408;2023-04-01T08:27:26;12.80;55.60
3037;DHT22;1528;52.550;13.408;2023-04-01T08:30:18;12.80;55.80
3037;DHT22;1528;52.550;13.408;2023-04-01T08:33:10;12.80;55.60
3037;DHT22;1528;52.550;13.408;2023-04-01T08:36:03;12.50;56.30
3037;DHT22;1528;52.550;13.408;2023-04-01T08:38:53;12.60;56.40
3037;DHT22;1528;52.550;13.408;2023-04-01T08:42:02;12.60;55.20
3037;DHT22;1528;52.550;13.408;2023-04-01T08:45:18;12.70;54.70
3037;DHT22;1528;52.550;13.408;2023-04-01T08:48:27;12.80;54.20
3037;DHT22;1528;52.550;13.408;2023-04-01T08:51:47;12.80;55.00
3037;DHT22;1528;52.550;13.408;2023-04-01T08:54:55;12.80;55.10
3037;DHT22;1528;52.550;13.408;2023-04-01T08:57:54;12.90;55.50
3037;DHT22;1528;52.550;13.408;2023-04-01T09:00:45;12.80;54.70
3037;DHT22;1528;52.550;13.408;2023-04-01T09:03:48;12.60;55.80
3037;DHT22;1528;52.550;13.408;2023-04-01T09:06:44;12.70;54.30
3037;DHT22;1528;52.550;13.408;2023-04-01T09:09:59;12.80;54.40
3037;DHT22;1528;52.550;13.408;2023-04-01T09:13:14;12.90;55.40
3037;DHT22;1528;52.550;13.408;2023-04-01T09:16:17;13.10;52.90
3037;DHT22;1528;52.550;13.408;2023-04-01T09:19:17;13.30;51.80
3037;DHT22;1528;52.550;13.408;2023-04-01T09:22:13;13.40;52.10
3037;DHT22;1528;52.550;13.408;2023-04-01T09:25:40;13.40;51.10
3037;DHT22;1528;52.550;13.408;2023-04-01T09:28:35;13.40;50.40
3037;DHT22;1528;52.550;13.408;2023-04-01T09:31:40;13.30;49.40
3037;DHT22;1528;52.550;13.408;2023-04-01T09:34:51;13.20;49.70
3037;DHT22;1528;52.550;13.408;2023-04-01T09:37:51;13.10;49.60
3037;DHT22;1528;52.550;13.408;2023-04-01T09:40:44;13.00;50.60
3037;DHT22;1528;52.550;13.408;2023-04-01T09:43:45;13.10;49.30
3037;DHT22;1528;52.550;13.408;2023-04-01T09:46:49;13.00;50.50
3037;DHT22;1528;52.550;13.408;2023-04-01T09:49:48;13.10;50.00
3037;DHT22;1528;52.550;13.408;2023-04-01T09:52:42;13.10;50.00
3037;DHT22;1528;52.550;13.408;2023-04-01T09:55:57;13.20;50.50
3037;DHT22;1528;52.550;13.408;2023-04-01T09:59:27;13.20;49.10
3037;DHT22;1528;52.550;13.408;2023-04-01T10:02:44;13.10;50.20
3037;DHT22;1528;52.550;13.408;2023-04-01T10:06:10;13.20;49.10
3037;DHT22;1528;52.550;13.408;2023-04-01T10:09:30;13.20;48.00
3037;DHT22;1528;52.550;13.408;2023-04-01T10:16:17;13.00;48.70
3037;DHT22;1528;52.550;13.408;2023-04-01T10:19:29;12.80;49.40
3037;DHT22;1528;52.550;13.408;2023-04-01T10:22:43;12.50;50.40
3037;DHT22;1528;52.550;13.408;2023-04-01T10:26:02;12.80;50.00
3037;DHT22;1528;52.550;13.408;2023-04-01T10:29:26;12.70;49.70
3037;DHT22;1528;52.550;13.408;2023-04-01T10:32:46;12.60;49.40
3037;DHT22;1528;52.550;13.408;2023-04-01T10:39:46;12.70;49.80
3037;DHT22;1528;52.550;13.408;2023-04-01T10:43:09;12.60;48.80
3037;DHT22;1528;52.550;13.408;2023-04-01T10:46:29;12.60;47.30
3037;DHT22;1528;52.550;13.408;2023-04-01T10:49:45;12.40;48.40
3037;DHT22;1528;52.550;13.408;2023-04-01T10:53:04;12.20;48.70
3037;DHT22;1528;52.550;13.408;2023-04-01T10:56:17;12.30;50.40
3037;DHT22;1528;52.550;13.408;2023-04-01T10:59:36;12.20;50.40
3037;DHT22;1528;52.550;13.408;2023-04-01T11:06:11;12.30;50.00
3037;DHT22;1528;52.550;13.408;2023-04-01T11:09:44;12.40;48.90
3037;DHT22;1528;52.550;13.408;2023-04-01T11:13:04;12.40;48.60
3037;DHT22;1528;52.550;13.408;2023-04-01T11:19:51;12.30;49.50
3037;DHT22;1528;52.550;13.408;2023-04-01T11:23:17;12.40;48.30
3037;DHT22;1528;52.550;13.408;2023-04-01T11:26:09;12.30;48.30
3037;DHT22;1528;52.550;13.408;2023-04-01T11:29:22;12.30;48.90
3037;DHT22;1528;52.550;13.408;2023-04-01T11:32:20;12.10;50.00
3037;DHT22;1528;52.550;13.408;2023-04-01T11:35:23;12.30;49.90
3037;DHT22;1528;52.550;13.408;2023-04-01T11:38:23;12.40;48.80
3037;DHT22;1528;52.550;13.408;2023-04-01T11:41:22;12.30;48.30
3037;DHT22;1528;52.550;13.408;2023-04-01T11:44:17;12.40;47.70
3037;DHT22;1528;52.550;13.408;2023-04-01T11:47:19;12.30;48.80
3037;DHT22;1528;52.550;13.408;2023-04-01T11:50:23;12.30;48.70
3037;DHT22;1528;52.550;13.408;2023-04-01T11:53:20;12.20;47.80
3037;DHT22;1528;52.550;13.408;2023-04-01T11:56:27;12.10;47.40
3037;DHT22;1528;52.550;13.408;2023-04-01T11:59:38;12.20;47.80
3037;DHT22;1528;52.550;13.408;2023-04-01T12:02:33;12.20;47.20
3037;DHT22;1528;52.550;13.408;2023-04-01T12:05:34;12.10;47.30
3037;DHT22;1528;52.550;13.408;2023-04-01T12:08:35;12.20;47.40
3037;DHT22;1528;52.550;13.408;2023-04-01T12:11:29;12.10;47.10
3037;DHT22;1528;52.550;13.408;2023-04-01T12:14:21;11.80;49.20
3037;DHT22;1528;52.550;13.408;2023-04-01T12:17:23;11.90;49.30
3037;DHT22;1528;52.550;13.408;2023-04-01T12:20:30;12.00;48.70
3037;DHT22;1528;52.550;13.408;2023-04-01T12:23:51;11.90;48.00
3037;DHT22;1528;52.550;13.408;2023-04-01T12:26:52;11.90;48.60
3037;DHT22;1528;52.550;13.408;2023-04-01T12:29:53;11.80;47.80
3037;DHT22;1528;52.550;13.408;2023-04-01T12:32:49;11.50;48.90
3037;DHT22;1528;52.550;13.408;2023-04-01T12:35:52;11.60;49.90
3037;DHT22;1528;52.550;13.408;2023-04-01T12:38:51;11.70;48.70
3037;DHT22;1528;52.550;13.408;2023-04-01T12:41:47;11.80;48.00
3037;DHT22;1528;52.550;13.408;2023-04-01T12:44:49;11.80;47.90
3037;DHT22;1528;52.550;13.408;2023-04-01T12:48:01;11.60;47.90
3037;DHT22;1528;52.550;13.408;2023-04-01T12:54:22;11.70;49.30
3037;DHT22;1528;52.550;13.408;2023-04-01T12:57:26;11.50;49.40
3037;DHT22;1528;52.550;13.408;2023-04-01T13:00:27;11.50;48.10
3037;DHT22;1528;52.550;13.408;2023-04-01T13:03:27;11.50;49.00
3037;DHT22;1528;52.550;13.408;2023-04-01T13:06:38;11.70;46.90
3037;DHT22;1528;52.550;13.408;2023-04-01T13:09:36;11.60;47.20
3037;DHT22;1528;52.550;13.408;2023-04-01T13:12:43;11.50;46.90
3037;DHT22;1528;52.550;13.408;2023-04-01T13:15:39;11.40;48.20
3037;DHT22;1528;52.550;13.408;2023-04-01T13:18:33;11.40;48.80
3037;DHT22;1528;52.550;13.408;2023-04-01T13:21:30;11.60;47.50
3037;DHT22;1528;52.550;13.408;2023-04-01T13:24:38;11.50;47.70
3037;DHT22;1528;52.550;13.408;2023-04-01T13:27:30;11.50;47.70
3037;DHT22;1528;52.550;13.408;2023-04-01T13:30:25;11.40;47.30
3037;DHT22;1528;52.550;13.408;2023-04-01T13:33:17;11.50;47.70
3037;DHT22;1528;52.550;13.408;2023-04-01T13:36:19;11.40;47.10
3037;DHT22;1528;52.550;13.408;2023-04-01T13:39:40;11.10;47.80
3037;DHT22;1528;52.550;13.408;2023-04-01T13:42:29;11.20;48.00
3037;DHT22;1528;52.550;13.408;2023-04-01T13:45:19;11.30;47.00
3037;DHT22;1528;52.550;13.408;2023-04-01T13:48:31;11.30;46.90
3037;DHT22;1528;52.550;13.408;2023-04-01T13:51:30;11.20;46.40
3037;DHT22;1528;52.550;13.408;2023-04-01T13:54:32;11.10;46.60
3037;DHT22;1528;52.550;13.408;2023-04-01T13:57:38;10.90;46.40
3037;DHT22;1528;52.550;13.408;2023-04-01T14:00:35;10.90;47.00
3037;DHT22;1528;52.550;13.408;2023-04-01T14:04:04;10.90;46.70
3037;DHT22;1528;52.550;13.408;2023-04-01T14:07:08;10.90;47.30
3037;DHT22;1528;52.550;13.408;2023-04-01T14:10:07;10.70;47.30
3037;DHT22;1528;52.550;13.408;2023-04-01T14:13:01;10.80;47.60
3037;DHT22;1528;52.550;13.408;2023-04-01T14:16:05;10.80;46.70
3037;DHT22;1528;52.550;13.408;2023-04-01T14:19:08;10.80;47.20
3037;DHT22;1528;52.550;13.408;2023-04-01T14:22:05;10.80;48.20
3037;DHT22;1528;52.550;13.408;2023-04-01T14:28:25;10.90;46.40
3037;DHT22;1528;52.550;13.408;2023-04-01T14:31:36;10.90;45.70
3037;DHT22;1528;52.550;13.408;2023-04-01T14:34:34;10.80;45.70
3037;DHT22;1528;52.550;13.408;2023-04-01T14:37:46;10.80;47.00
3037;DHT22;1528;52.550;13.408;2023-04-01T14:40:48;10.70;46.60
3037;DHT22;1528;52.550;13.408;2023-04-01T14:44:09;10.60;46.00
3037;DHT22;1528;52.550;13.408;2023-04-01T14:47:31;10.60;46.80
3037;DHT22;1528;52.550;13.408;2023-04-01T14:50:22;10.50;46.50
3037;DHT22;1528;52.550;13.408;2023-04-01T14:53:16;10.50;47.20
3037;DHT22;1528;52.550;13.408;2023-04-01T14:56:08;10.60;47.20
3037;DHT22;1528;52.550;13.408;2023-04-01T14:58:57;10.70;46.50
3037;DHT22;1528;52.550;13.408;2023-04-01T15:01:49;10.60;45.80
3037;DHT22;1528;52.550;13.408;2023-04-01T15:04:44;10.50;47.30
3037;DHT22;1528;52.550;13.408;2023-04-01T15:11:26;10.50;46.60
3037;DHT22;1528;52.550;13.408;2023-04-01T15:14:34;10.50;46.50
3037;DHT22;1528;52.550;13.408;2023-04-01T15:17:43;10.50;45.30
3037;DHT22;1528;52.550;13.408;2023-04-01T15:20:48;10.30;45.50
3037;DHT22;1528;52.550;13.408;2023-04-01T15:23:44;10.20;45.80
3037;DHT22;1528;52.550;13.408;2023-04-01T15:26:47;10.00;46.00
3037;DHT22;1528;52.550;13.408;2023-04-01T15:33:21;10.10;46.00
3037;DHT22;1528;52.550;13.408;2023-04-01T15:36:20;10.20;45.20
3037;DHT22;1528;52.550;13.408;2023-04-01T15:39:13;10.20;44.80
3037;DHT22;1528;52.550;13.408;2023-04-01T15:42:31;10.00;45.80
3037;DHT22;1528;52.550;13.408;2023-04-01T15:45:31;10.10;45.60
3037;DHT22;1528;52.550;13.408;2023-04-01T15:48:46;10.10;46.00
3037;DHT22;1528;52.550;13.408;2023-04-01T15:51:45;10.10;45.60
3037;DHT22;1528;52.550;13.408;2023-04-01T15:54:49;10.10;45.50
3037;DHT22;1528;52.550;13.408;2023-04-01T15:57:46;10.00;45.20
3037;DHT22;1528;52.550;13.408;2023-04-01T16:00:45;10.00;45.20
3037;DHT22;1528;52.550;13.408;2023-04-01T16:03:40;9.80;47.20
3037;DHT22;1528;52.550;13.408;2023-04-01T16:06:51;9.80;47.10
3037;DHT22;1528;52.550;13.408;2023-04-01T16:09:56;9.90;46.60
3037;DHT22;1528;52.550;13.408;2023-04-01T16:12:54;9.90;46.80
3037;DHT22;1528;52.550;13.408;2023-04-01T16:15:49;9.70;47.40
3037;DHT22;1528;52.550;13.408;2023-04-01T16:19:02;9.80;46.50
3037;DHT22;1528;52.550;13.408;2023-04-01T16:21:53;9.70;45.60
3037;DHT22;1528;52.550;13.408;2023-04-01T16:24:44;9.60;44.80
3037;DHT22;1528;52.550;13.408;2023-04-01T16:27:36;9.60;45.20
3037;DHT22;1528;52.550;13.408;2023-04-01T16:30:34;9.50;45.40
3037;DHT22;1528;52.550;13.408;2023-04-01T16:33:24;9.60;45.60
3037;DHT22;1528;52.550;13.408;2023-04-01T16:36:24;9.50;45.40
3037;DHT22;1528;52.550;13.408;2023-04-01T16:39:29;9.50;44.70
3037;DHT22;1528;52.550;13.408;2023-04-01T16:42:26;9.40;44.70
3037;DHT22;1528;52.550;13.408;2023-04-01T16:45:23;9.30;44.70
3037;DHT22;1528;52.550;13.408;2023-04-01T16:48:12;9.30;45.10
3037;DHT22;1528;52.550;13.408;2023-04-01T16:51:00;9.30;45.00
3037;DHT22;1528;52.550;13.408;2023-04-01T16:53:54;9.20;45.20
3037;DHT22;1528;52.550;13.408;2023-04-01T16:56:50;9.10;45.30
3037;DHT22;1528;52.550;13.408;2023-04-01T16:59:44;9.10;45.40
3037;DHT22;1528;52.550;13.408;2023-04-01T17:02:35;9.10;45.60
3037;DHT22;1528;52.550;13.408;2023-04-01T17:05:37;9.00;46.40
3037;DHT22;1528;52.550;13.408;2023-04-01T17:08:34;9.10;46.40
3037;DHT22;1528;52.550;13.408;2023-04-01T17:11:26;8.90;46.40
3037;DHT22;1528;52.550;13.408;2023-04-01T17:14:20;8.90;46.30
3037;DHT22;1528;52.550;13.408;2023-04-01T17:17:26;8.70;47.20
3037;DHT22;1528;52.550;13.408;2023-04-01T17:20:25;8.80;46.50
3037;DHT22;1528;52.550;13.408;2023-04-01T17:23:20;8.80;46.80
3037;DHT22;1528;52.550;13.408;2023-04-01T17:26:17;8.80;46.70
3037;DHT22;1528;52.550;13.408;2023-04-01T17:29:15;8.70;45.90
3037;DHT22;1528;52.550;13.408;2023-04-01T17:32:09;8.60;46.10
3037;DHT22;1528;52.550;13.408;2023-04-01T17:35:02;8.60;46.10
3037;DHT22;1528;52.550;13.408;2023-04-01T17:37:58;8.50;46.20
3037;DHT22;1528;52.550;13.408;2023-04-01T17:40:56;8.50;45.80
3037;DHT22;1528;52.550;13.408;2023-04-01T17:43:49;8.50;46.10
3037;DHT22;1528;52.550;13.408;2023-04-01T17:46:54;8.50;45.70
3037;DHT22;1528;52.550;13.408;2023-04-01T17:49:47;8.30;45.70
3037;DHT22;1528;52.550;13.408;2023-04-01T17:52:39;8.30;45.40
3037;DHT22;1528;52.550;13.408;2023-04-01T17:55:39;8.20;46.10
3037;DHT22;1528;52.550;13.408;2023-04-01T17:58:30;8.30;46.00
3037;DHT22;1528;52.550;13.408;2023-04-01T18:01:24;8.20;45.40
3037;DHT22;1528;52.550;13.408;2023-04-01T18:04:25;8.00;46.90
3037;DHT22;1528;52.550;13.408;2023-04-01T18:07:30;8.10;46.70
3037;DHT22;1528;52.550;13.408;2023-04-01T18:10:25;8.20;45.50
3037;DHT22;1528;52.550;13.408;2023-04-01T18:13:36;8.10;46.20
3037;DHT22;1528;52.550;13.408;2023-04-01T18:16:49;8.20;46.40
3037;DHT22;1528;52.550;13.408;2023-04-01T18:19:48;8.10;46.60
3037;DHT22;1528;52.550;13.408;2023-04-01T18:22:41;8.30;46.30
3037;DHT22;1528;52.550;13.408;2023-04-01T18:25:33;8.30;46.70
3037;DHT22;1528;52.550;13.408;2023-04-01T18:28:33;8.50;46.90
3037;DHT22;1528;52.550;13.408;2023-04-01T18:31:23;8.40;45.00
3037;DHT22;1528;52.550;13.408;2023-04-01T18:34:14;8.30;45.40
3037;DHT22;1528;52.550;13.408;2023-04-01T18:37:15;8.10;45.70
3037;DHT22;1528;52.550;13.408;2023-04-01T18:40:13;8.20;45.50
3037;DHT22;1528;52.550;13.408;2023-04-01T18:43:10;8.10;45.80
3037;DHT22;1528;52.550;13.408;2023-04-01T18:45:59;8.10;45.70
3037;DHT22;1528;52.550;13.408;2023-04-01T18:48:52;8.10;45.40
3037;DHT22;1528;52.550;13.408;2023-04-01T18:51:45;8.00;46.50
3037;DHT22;1528;52.550;13.408;2023-04-01T18:54:42;7.80;47.00
3037;DHT22;1528;52.550;13.408;2023-04-01T18:57:39;7.90;46.10
3037;DHT22;1528;52.550;13.408;2023-04-01T19:00:28;8.10;46.20
3037;DHT22;1528;52.550;13.408;2023-04-01T19:03:20;7.90;45.80
3037;DHT22;1528;52.550;13.408;2023-04-01T19:06:17;7.90;46.00
3037;DHT22;1528;52.550;13.408;2023-04-01T19:09:24;7.80;46.90
3037;DHT22;1528;52.550;13.408;2023-04-01T19:12:32;7.80;46.20
3037;DHT22;1528;52.550;13.408;2023-04-01T19:15:27;7.70;46.90
3037;DHT22;1528;52.550;13.408;2023-04-01T19:18:28;7.70;46.30
3037;DHT22;1528;52.550;13.408;2023-04-01T19:21:19;7.60;46.70
3037;DHT22;1528;52.550;13.408;2023-04-01T19:24:42;7.60;47.50